sensor_id;sensor_type;location;lat;lon;timestamp;temperature;humidity
30037;DHT22;36325;51.512;-0.382;2024-03-29T00:00:05;8.60;99.90
30037;DHT22;36325;51.512;-0.382;2024-03-29T00:02:38;8.60;99.90
30037;DHT22;36325;51.512;-0.382;2024-03-29T00:05:04;8.60;99.90
30037;DHT22;36325;51.512;-0.382;2024-03-29T00:07:30;8.60;99.90
30037;DHT22;36325;51.512;-0.382;2024-03-29T00:09:56;8.60;99.90
30037;DHT22;36325;51.512;-0.382;2024-03-29T00:12:23;8.60;99.90
30037;DHT22;36325;51.512;-0.382;2024-03-29T00:14:52;8.70;99.90
30037;DHT22;36325;51.512;-0.382;2024-03-29T00:17:19;8.70;99.90
30037;DHT22;36325;51.512;-0.382;2024-03-29T00:19:46;8.70;99.90
30037;DHT22;36325;51.512;-0.382;2024-03-29T00:22:14;8.80;99.90
30037;DHT22;36325;51.512;-0.382;2024-03-29T00:24:41;8.80;99.90
30037;DHT22;36325;51.512;-0.382;2024-03-29T00:27:08;8.80;99.90
30037;DHT22;36325;51.512;-0.382;2024-03-29T00:29:34;8.80;99.90
30037;DHT22;36325;51.512;-0.382;2024-03-29T00:32:02;8.80;99.90
30037;DHT22;36325;51.512;-0.382;2024-03-29T00:34:28;8.80;99.90
30037;DHT22;36325;51.512;-0.382;2024-03-29T00:36:58;8.80;99.90
30037;DHT22;36325;51.512;-0.382;2024-03-29T00:39:31;8.80;99.90
30037;DHT22;36325;51.512;-0.382;2024-03-29T00:41:59;8.80;99.90
30037;DHT22;36325;51.512;-0.382;2024-03-29T00:44:25;8.80;99.90
30037;DHT22;36325;51.512;-0.382;2024-03-29T00:46:55;8.90;99.90
30037;DHT22;36325;51.512;-0.382;2024-03-29T00:49:25;8.90;99.90
30037;DHT22;36325;51.512;-0.382;2024-03-29T00:51:51;8.90;99.90
30037;DHT22;36325;51.512;-0.382;2024-03-29T00:54:18;8.90;99.90
30037;DHT22;36325;51.512;-0.382;2024-03-29T00:56:45;8.90;99.90
30037;DHT22;36325;51.512;-0.382;2024-03-29T00:59:12;8.90;99.90
30037;DHT22;36325;51.512;-0.382;2024-03-29T01:01:42;8.80;99.90
30037;DHT22;36325;51.512;-0.382;2024-03-29T01:04:09;8.90;99.90
30037;DHT22;36325;51.512;-0.382;2024-03-29T01:06:36;8.90;99.90
30037;DHT22;36325;51.512;-0.382;2024-03-29T01:09:03;8.90;99.90
30037;DHT22;36325;51.512;-0.382;2024-03-29T01:11:33;8.90;99.90
30037;DHT22;36325;51.512;-0.382;2024-03-29T01:13:59;9.00;99.90
30037;DHT22;36325;51.512;-0.382;2024-03-29T01:16:25;9.00;99.90
30037;DHT22;36325;51.512;-0.382;2024-03-29T01:18:52;8.90;99.90
30037;DHT22;36325;51.512;-0.382;2024-03-29T01:21:22;9.00;99.90
30037;DHT22;36325;51.512;-0.382;2024-03-29T01:23:48;8.90;99.90
30037;DHT22;36325;51.512;-0.382;2024-03-29T01:26:16;8.90;99.90
30037;DHT22;36325;51.512;-0.382;2024-03-29T01:28:43;8.90;99.90
30037;DHT22;36325;51.512;-0.382;2024-03-29T01:31:09;8.80;99.90
30037;DHT22;36325;51.512;-0.382;2024-03-29T01:33:35;8.90;99.90
30037;DHT22;36325;51.512;-0.382;2024-03-29T01:36:07;8.70;99.90
30037;DHT22;36325;51.512;-0.382;2024-03-29T01:38:34;8.80;99.90
30037;DHT22;36325;51.512;-0.382;2024-03-29T01:41:01;8.70;99.90
30037;DHT22;36325;51.512;-0.382;2024-03-29T01:43:29;8.70;99.90
30037;DHT22;36325;51.512;-0.382;2024-03-29T01:45:57;8.70;99.90
30037;DHT22;36325;51.512;-0.382;2024-03-29T01:48:24;8.70;99.90
30037;DHT22;36325;51.512;-0.382;2024-03-29T01:50:56;8.70;99.90
30037;DHT22;36325;51.512;-0.382;2024-03-29T01:53:25;8.70;99.90
30037;DHT22;36325;51.512;-0.382;2024-03-29T01:55:52;8.70;99.90
30037;DHT22;36325;51.512;-0.382;2024-03-29T01:58:19;8.70;99.90
30037;DHT22;36325;51.512;-0.382;2024-03-29T02:00:55;8.60;99.90
30037;DHT22;36325;51.512;-0.382;2024-03-29T02:03:25;8.60;99.90
30037;DHT22;36325;51.512;-0.382;2024-03-29T02:05:51;8.60;99.90
30037;DHT22;36325;51.512;-0.382;2024-03-29T02:08:20;8.60;99.90
30037;DHT22;36325;51.512;-0.382;2024-03-29T02:10:47;8.60;99.90
30037;DHT22;36325;51.512;-0.382;2024-03-29T02:13:14;8.60;99.90
30037;DHT22;36325;51.512;-0.382;2024-03-29T02:15:40;8.50;99.90
30037;DHT22;36325;51.512;-0.382;2024-03-29T02:18:07;8.60;99.90
30037;DHT22;36325;51.512;-0.382;2024-03-29T02:20:35;8.60;99.90
30037;DHT22;36325;51.512;-0.382;2024-03-29T02:25:29;8.60;99.90
30037;DHT22;36325;51.512;-0.382;2024-03-29T02:28:00;8.60;99.90
30037;DHT22;36325;51.512;-0.382;2024-03-29T02:30:27;8.60;99.90
30037;DHT22;36325;51.512;-0.382;2024-03-29T02:32:53;8.60;99.90
30037;DHT22;36325;51.512;-0.382;2024-03-29T02:35:19;8.70;99.90
30037;DHT22;36325;51.512;-0.382;2024-03-29T02:37:51;8.70;99.90
30037;DHT22;36325;51.512;-0.382;2024-03-29T02:40:19;8.70;99.90
30037;DHT22;36325;51.512;-0.382;2024-03-29T02:42:47;8.70;99.90
30037;DHT22;36325;51.512;-0.382;2024-03-29T02:47:46;8.60;99.90
30037;DHT22;36325;51.512;-0.382;2024-03-29T02:50:14;8.70;99.90
30037;DHT22;36325;51.512;-0.382;2024-03-29T02:52:41;8.70;99.90
30037;DHT22;36325;51.512;-0.382;2024-03-29T02:55:12;8.70;99.90
30037;DHT22;36325;51.512;-0.382;2024-03-29T02:57:38;8.70;99.90
30037;DHT22;36325;51.512;-0.382;2024-03-29T03:00:04;8.60;99.90
30037;DHT22;36325;51.512;-0.382;2024-03-29T03:02:36;8.70;99.90
30037;DHT22;36325;51.512;-0.382;2024-03-29T03:05:04;8.60;99.90
30037;DHT22;36325;51.512;-0.382;2024-03-29T03:07:31;8.50;99.90
30037;DHT22;36325;51.512;-0.382;2024-03-29T03:10:15;8.50;99.90
30037;DHT22;36325;51.512;-0.382;2024-03-29T03:13:06;8.50;99.90
30037;DHT22;36325;51.512;-0.382;2024-03-29T03:15:32;8.50;99.90
30037;DHT22;36325;51.512;-0.382;2024-03-29T03:17:59;8.50;99.90
30037;DHT22;36325;51.512;-0.382;2024-03-29T03:20:27;8.50;99.90
30037;DHT22;36325;51.512;-0.382;2024-03-29T03:22:57;8.60;99.90
30037;DHT22;36325;51.512;-0.382;2024-03-29T03:25:26;8.60;99.90
30037;DHT22;36325;51.512;-0.382;2024-03-29T03:27:57;8.60;99.90
30037;DHT22;36325;51.512;-0.382;2024-03-29T03:30:26;8.70;99.90
30037;DHT22;36325;51.512;-0.382;2024-03-29T03:32:53;8.70;99.90
30037;DHT22;36325;51.512;-0.382;2024-03-29T03:35:19;8.70;99.90
30037;DHT22;36325;51.512;-0.382;2024-03-29T03:37:47;8.70;99.90
30037;DHT22;36325;51.512;-0.382;2024-03-29T03:40:13;8.80;99.90
30037;DHT22;36325;51.512;-0.382;2024-03-29T03:42:41;8.80;99.90
30037;DHT22;36325;51.512;-0.382;2024-03-29T03:45:08;8.80;99.90
30037;DHT22;36325;51.512;-0.382;2024-03-29T03:47:36;8.80;99.90
30037;DHT22;36325;51.512;-0.382;2024-03-29T03:50:03;8.80;99.90
30037;DHT22;36325;51.512;-0.382;2024-03-29T03:52:31;8.70;99.90
30037;DHT22;36325;51.512;-0.382;2024-03-29T03:54:59;8.80;99.90
30037;DHT22;36325;51.512;-0.382;2024-03-29T03:57:27;8.80;99.90
30037;DHT22;36325;51.512;-0.382;2024-03-29T04:02:49;8.90;99.90
30037;DHT22;36325;51.512;-0.382;2024-03-29T04:05:21;8.80;99.90
30037;DHT22;36325;51.512;-0.382;2024-03-29T04:07:47;8.80;99.90
30037;DHT22;36325;51.512;-0.382;2024-03-29T04:13:12;8.70;99.90
30037;DHT22;36325;51.512;-0.382;2024-03-29T04:15:38;8.60;99.90
30037;DHT22;36325;51.512;-0.382;2024-03-29T04:18:07;8.60;99.90
30037;DHT22;36325;51.512;-0.382;2024-03-29T04:20:34;8.50;99.90
30037;DHT22;36325;51.512;-0.382;2024-03-29T04:23:04;8.50;99.90
30037;DHT22;36325;51.512;-0.382;2024-03-29T04:25:30;8.40;99.90
30037;DHT22;36325;51.512;-0.382;2024-03-29T04:28:01;8.50;99.90
30037;DHT22;36325;51.512;-0.382;2024-03-29T04:35:28;8.30;99.90
30037;DHT22;36325;51.512;-0.382;2024-03-29T04:37:57;8.20;99.90
30037;DHT22;36325;51.512;-0.382;2024-03-29T04:40:27;8.10;99.90
30037;DHT22;36325;51.512;-0.382;2024-03-29T04:43:00;8.10;99.90
30037;DHT22;36325;51.512;-0.382;2024-03-29T04:45:28;8.10;99.90
30037;DHT22;36325;51.512;-0.382;2024-03-29T04:47:56;8.00;99.90
30037;DHT22;36325;51.512;-0.382;2024-03-29T04:50:23;8.00;99.90
30037;DHT22;36325;51.512;-0.382;2024-03-29T04:52:49;7.90;99.90
30037;DHT22;36325;51.512;-0.382;2024-03-29T04:55:16;7.90;99.90
30037;DHT22;36325;51.512;-0.382;2024-03-29T04:57:42;7.90;99.90
30037;DHT22;36325;51.512;-0.382;2024-03-29T05:00:08;7.90;99.90
30037;DHT22;36325;51.512;-0.382;2024-03-29T05:02:35;7.80;99.90
30037;DHT22;36325;51.512;-0.382;2024-03-29T05:05:07;7.80;99.90
30037;DHT22;36325;51.512;-0.382;2024-03-29T05:07:34;7.80;99.90
30037;DHT22;36325;51.512;-0.382;2024-03-29T05:10:00;7.80;99.90
30037;DHT22;36325;51.512;-0.382;2024-03-29T05:12:33;7.80;99.90
30037;DHT22;36325;51.512;-0.382;2024-03-29T05:15:02;7.80;99.90
30037;DHT22;36325;51.512;-0.382;2024-03-29T05:17:31;7.80;99.90
30037;DHT22;36325;51.512;-0.382;2024-03-29T05:19:58;7.80;99.90
30037;DHT22;36325;51.512;-0.382;2024-03-29T05:22:25;7.80;99.90
30037;DHT22;36325;51.512;-0.382;2024-03-29T05:24:54;7.80;99.90
30037;DHT22;36325;51.512;-0.382;2024-03-29T05:27:21;7.80;99.90
30037;DHT22;36325;51.512;-0.382;2024-03-29T05:29:47;7.80;99.90
30037;DHT22;36325;51.512;-0.382;2024-03-29T05:32:15;7.80;99.90
30037;DHT22;36325;51.512;-0.382;2024-03-29T05:34:43;7.80;99.90
30037;DHT22;36325;51.512;-0.382;2024-03-29T05:37:14;7.90;99.90
30037;DHT22;36325;51.512;-0.382;2024-03-29T05:39:44;7.90;99.90
30037;DHT22;36325;51.512;-0.382;2024-03-29T05:42:15;7.80;99.90
30037;DHT22;36325;51.512;-0.382;2024-03-29T05:44:41;7.90;99.90
30037;DHT22;36325;51.512;-0.382;2024-03-29T05:47:07;7.80;99.90
30037;DHT22;36325;51.512;-0.382;2024-03-29T05:49:36;7.80;99.90
30037;DHT22;36325;51.512;-0.382;2024-03-29T05:54:54;7.80;99.90
30037;DHT22;36325;51.512;-0.382;2024-03-29T05:57:20;7.80;99.90
30037;DHT22;36325;51.512;-0.382;2024-03-29T05:59:50;7.80;99.90
30037;DHT22;36325;51.512;-0.382;2024-03-29T06:02:17;7.80;99.90
30037;DHT22;36325;51.512;-0.382;2024-03-29T06:04:44;7.80;99.90
30037;DHT22;36325;51.512;-0.382;2024-03-29T06:09:47;7.90;99.90
30037;DHT22;36325;51.512;-0.382;2024-03-29T06:14:42;7.90;99.90
30037;DHT22;36325;51.512;-0.382;2024-03-29T06:17:27;7.90;99.90
30037;DHT22;36325;51.512;-0.382;2024-03-29T06:19:54;7.90;99.90
30037;DHT22;36325;51.512;-0.382;2024-03-29T06:22:24;8.00;99.90
30037;DHT22;36325;51.512;-0.382;2024-03-29T06:24:51;8.00;99.90
30037;DHT22;36325;51.512;-0.382;2024-03-29T06:27:22;8.00;99.90
30037;DHT22;36325;51.512;-0.382;2024-03-29T06:29:49;8.10;99.90
30037;DHT22;36325;51.512;-0.382;2024-03-29T06:32:17;8.10;99.90
30037;DHT22;36325;51.512;-0.382;2024-03-29T06:34:44;8.20;99.90
30037;DHT22;36325;51.512;-0.382;2024-03-29T06:37:11;8.10;99.90
30037;DHT22;36325;51.512;-0.382;2024-03-29T06:39:40;8.10;99.90
30037;DHT22;36325;51.512;-0.382;2024-03-29T06:42:09;8.20;99.90
30037;DHT22;36325;51.512;-0.382;2024-03-29T06:44:39;8.20;99.90
30037;DHT22;36325;51.512;-0.382;2024-03-29T06:49:36;8.30;99.90
30037;DHT22;36325;51.512;-0.382;2024-03-29T06:52:04;8.40;99.90
30037;DHT22;36325;51.512;-0.382;2024-03-29T06:54:35;8.40;99.90
30037;DHT22;36325;51.512;-0.382;2024-03-29T06:57:08;8.40;99.90
30037;DHT22;36325;51.512;-0.382;2024-03-29T06:59:37;8.50;99.90
30037;DHT22;36325;51.512;-0.382;2024-03-29T07:02:07;8.70;99.90
30037;DHT22;36325;51.512;-0.382;2024-03-29T07:04:33;8.70;99.90
30037;DHT22;36325;51.512;-0.382;2024-03-29T07:07:00;8.80;99.90
30037;DHT22;36325;51.512;-0.382;2024-03-29T07:09:26;8.80;99.90
30037;DHT22;36325;51.512;-0.382;2024-03-29T07:11:52;8.80;99.90
30037;DHT22;36325;51.512;-0.382;2024-03-29T07:14:20;8.80;99.90
30037;DHT22;36325;51.512;-0.382;2024-03-29T07:16:56;8.90;99.90
30037;DHT22;36325;51.512;-0.382;2024-03-29T07:19:27;9.00;99.90
30037;DHT22;36325;51.512;-0.382;2024-03-29T07:21:53;9.10;99.90
30037;DHT22;36325;51.512;-0.382;2024-03-29T07:24:22;9.20;99.90
30037;DHT22;36325;51.512;-0.382;2024-03-29T07:26:51;9.30;99.90
30037;DHT22;36325;51.512;-0.382;2024-03-29T07:29:18;9.30;99.90
30037;DHT22;36325;51.512;-0.382;2024-03-29T07:31:44;9.30;99.90
30037;DHT22;36325;51.512;-0.382;2024-03-29T07:34:12;9.40;99.90
30037;DHT22;36325;51.512;-0.382;2024-03-29T07:36:39;9.40;99.90
30037;DHT22;36325;51.512;-0.382;2024-03-29T07:39:08;9.40;99.90
30037;DHT22;36325;51.512;-0.382;2024-03-29T07:41:34;9.40;99.90
30037;DHT22;36325;51.512;-0.382;2024-03-29T07:44:00;9.40;99.90
30037;DHT22;36325;51.512;-0.382;2024-03-29T07:46:34;9.50;99.90
30037;DHT22;36325;51.512;-0.382;2024-03-29T07:49:00;9.50;99.90
30037;DHT22;36325;51.512;-0.382;2024-03-29T07:51:27;9.50;99.90
30037;DHT22;36325;51.512;-0.382;2024-03-29T07:53:54;9.50;99.90
30037;DHT22;36325;51.512;-0.382;2024-03-29T07:56:21;9.50;99.90
30037;DHT22;36325;51.512;-0.382;2024-03-29T07:58:51;9.50;99.90
30037;DHT22;36325;51.512;-0.382;2024-03-29T08:01:22;9.60;99.90
30037;DHT22;36325;51.512;-0.382;2024-03-29T08:03:52;9.70;99.90
30037;DHT22;36325;51.512;-0.382;2024-03-29T08:06:22;9.70;99.90
30037;DHT22;36325;51.512;-0.382;2024-03-29T08:08:51;9.90;99.90
30037;DHT22;36325;51.512;-0.382;2024-03-29T08:11:18;9.90;99.90
30037;DHT22;36325;51.512;-0.382;2024-03-29T08:13:44;10.10;99.90
30037;DHT22;36325;51.512;-0.382;2024-03-29T08:16:10;10.30;99.90
30037;DHT22;36325;51.512;-0.382;2024-03-29T08:18:40;10.40;99.90
30037;DHT22;36325;51.512;-0.382;2024-03-29T08:23:38;10.40;99.90
30037;DHT22;36325;51.512;-0.382;2024-03-29T08:26:04;10.40;99.90
30037;DHT22;36325;51.512;-0.382;2024-03-29T08:28:33;10.40;99.90
30037;DHT22;36325;51.512;-0.382;2024-03-29T08:31:03;10.50;99.90
30037;DHT22;36325;51.512;-0.382;2024-03-29T08:33:29;10.50;99.90
30037;DHT22;36325;51.512;-0.382;2024-03-29T08:35:57;10.50;99.90
30037;DHT22;36325;51.512;-0.382;2024-03-29T08:38:26;10.50;99.90
30037;DHT22;36325;51.512;-0.382;2024-03-29T08:40:53;10.70;99.90
30037;DHT22;36325;51.512;-0.382;2024-03-29T08:43:19;10.70;99.90
30037;DHT22;36325;51.512;-0.382;2024-03-29T08:45:47;10.70;99.90
30037;DHT22;36325;51.512;-0.382;2024-03-29T08:48:14;10.70;99.90
30037;DHT22;36325;51.512;-0.382;2024-03-29T08:50:42;10.90;99.90
30037;DHT22;36325;51.512;-0.382;2024-03-29T08:53:09;11.00;99.90
30037;DHT22;36325;51.512;-0.382;2024-03-29T08:55:35;11.00;99.90
30037;DHT22;36325;51.512;-0.382;2024-03-29T08:58:05;10.90;99.90
30037;DHT22;36325;51.512;-0.382;2024-03-29T09:00:32;10.90;99.90
30037;DHT22;36325;51.512;-0.382;2024-03-29T09:02:59;10.90;99.90
30037;DHT22;36325;51.512;-0.382;2024-03-29T09:05:30;10.80;99.90
30037;DHT22;36325;51.512;-0.382;2024-03-29T09:10:48;10.80;99.90
30037;DHT22;36325;51.512;-0.382;2024-03-29T09:13:14;10.70;99.90
30037;DHT22;36325;51.512;-0.382;2024-03-29T09:15:41;10.80;99.90
30037;DHT22;36325;51.512;-0.382;2024-03-29T09:18:08;10.80;99.90
30037;DHT22;36325;51.512;-0.382;2024-03-29T09:23:51;11.30;99.90
30037;DHT22;36325;51.512;-0.382;2024-03-29T09:26:19;11.40;99.90
30037;DHT22;36325;51.512;-0.382;2024-03-29T09:28:47;11.40;99.90
30037;DHT22;36325;51.512;-0.382;2024-03-29T09:31:15;11.20;99.90
30037;DHT22;36325;51.512;-0.382;2024-03-29T09:33:41;11.20;99.90
30037;DHT22;36325;51.512;-0.382;2024-03-29T09:36:09;11.10;99.90
30037;DHT22;36325;51.512;-0.382;2024-03-29T09:38:37;11.00;99.90
30037;DHT22;36325;51.512;-0.382;2024-03-29T09:41:13;11.10;99.90
30037;DHT22;36325;51.512;-0.382;2024-03-29T09:43:45;11.10;99.90
30037;DHT22;36325;51.512;-0.382;2024-03-29T09:46:13;11.10;99.90
30037;DHT22;36325;51.512;-0.382;2024-03-29T09:51:34;11.20;99.90
30037;DHT22;36325;51.512;-0.382;2024-03-29T09:54:01;11.40;99.90
30037;DHT22;36325;51.512;-0.382;2024-03-29T09:56:30;11.50;99.90
30037;DHT22;36325;51.512;-0.382;2024-03-29T09:58:57;11.50;99.90
30037;DHT22;36325;51.512;-0.382;2024-03-29T10:01:23;11.50;99.90
30037;DHT22;36325;51.512;-0.382;2024-03-29T10:03:50;11.60;99.90
30037;DHT22;36325;51.512;-0.382;2024-03-29T10:06:19;11.60;99.90
30037;DHT22;36325;51.512;-0.382;2024-03-29T10:08:49;11.70;99.90
30037;DHT22;36325;51.512;-0.382;2024-03-29T10:11:15;11.70;99.90
30037;DHT22;36325;51.512;-0.382;2024-03-29T10:13:42;11.70;99.90
30037;DHT22;36325;51.512;-0.382;2024-03-29T10:16:11;11.50;99.90
30037;DHT22;36325;51.512;-0.382;2024-03-29T10:18:40;11.40;99.90
30037;DHT22;36325;51.512;-0.382;2024-03-29T10:21:07;11.30;99.90
30037;DHT22;36325;51.512;-0.382;2024-03-29T10:23:33;11.70;99.90
30037;DHT22;36325;51.512;-0.382;2024-03-29T10:26:04;12.00;99.90
30037;DHT22;36325;51.512;-0.382;2024-03-29T10:28:32;12.10;99.90
30037;DHT22;36325;51.512;-0.382;2024-03-29T10:31:00;12.00;99.90
30037;DHT22;36325;51.512;-0.382;2024-03-29T10:33:29;12.20;99.90
30037;DHT22;36325;51.512;-0.382;2024-03-29T10:36:01;12.70;99.90
30037;DHT22;36325;51.512;-0.382;2024-03-29T10:38:32;13.20;99.90
30037;DHT22;36325;51.512;-0.382;2024-03-29T10:40:59;13.50;99.90
30037;DHT22;36325;51.512;-0.382;2024-03-29T10:43:26;13.40;99.90
30037;DHT22;36325;51.512;-0.382;2024-03-29T10:45:55;13.30;99.90
30037;DHT22;36325;51.512;-0.382;2024-03-29T10:48:26;13.20;99.90
30037;DHT22;36325;51.512;-0.382;2024-03-29T10:50:53;13.20;99.90
30037;DHT22;36325;51.512;-0.382;2024-03-29T10:53:20;13.20;99.90
30037;DHT22;36325;51.512;-0.382;2024-03-29T10:55:49;13.00;99.90
30037;DHT22;36325;51.512;-0.382;2024-03-29T10:58:22;13.00;99.90
30037;DHT22;36325;51.512;-0.382;2024-03-29T11:00:53;12.90;99.90
30037;DHT22;36325;51.512;-0.382;2024-03-29T11:03:40;12.90;99.90
30037;DHT22;36325;51.512;-0.382;2024-03-29T11:06:09;13.00;99.90
30037;DHT22;36325;51.512;-0.382;2024-03-29T11:08:37;12.80;99.90
30037;DHT22;36325;51.512;-0.382;2024-03-29T11:11:08;12.70;99.90
30037;DHT22;36325;51.512;-0.382;2024-03-29T11:16:06;12.80;99.90
30037;DHT22;36325;51.512;-0.382;2024-03-29T11:18:33;13.20;99.90
30037;DHT22;36325;51.512;-0.382;2024-03-29T11:21:01;13.20;99.90
30037;DHT22;36325;51.512;-0.382;2024-03-29T11:23:31;13.00;99.90
30037;DHT22;36325;51.512;-0.382;2024-03-29T11:25:57;13.20;99.90
30037;DHT22;36325;51.512;-0.382;2024-03-29T11:28:29;13.70;99.90
30037;DHT22;36325;51.512;-0.382;2024-03-29T11:31:03;14.70;99.90
30037;DHT22;36325;51.512;-0.382;2024-03-29T11:38:39;15.40;99.90
30037;DHT22;36325;51.512;-0.382;2024-03-29T11:41:06;16.40;99.90
30037;DHT22;36325;51.512;-0.382;2024-03-29T11:43:33;16.90;99.90
30037;DHT22;36325;51.512;-0.382;2024-03-29T11:46:02;16.80;99.90
30037;DHT22;36325;51.512;-0.382;2024-03-29T11:48:30;16.70;99.90
30037;DHT22;36325;51.512;-0.382;2024-03-29T11:51:01;17.10;99.90
30037;DHT22;36325;51.512;-0.382;2024-03-29T11:53:30;17.30;99.90
30037;DHT22;36325;51.512;-0.382;2024-03-29T11:55:57;16.60;99.90
30037;DHT22;36325;51.512;-0.382;2024-03-29T11:58:24;16.30;99.90
30037;DHT22;36325;51.512;-0.382;2024-03-29T12:00:52;15.80;99.90
30037;DHT22;36325;51.512;-0.382;2024-03-29T12:03:20;16.10;99.90
30037;DHT22;36325;51.512;-0.382;2024-03-29T12:05:49;16.90;99.90
30037;DHT22;36325;51.512;-0.382;2024-03-29T12:08:23;17.50;99.90
30037;DHT22;36325;51.512;-0.382;2024-03-29T12:10:51;17.70;99.90
30037;DHT22;36325;51.512;-0.382;2024-03-29T12:13:17;18.20;99.90
30037;DHT22;36325;51.512;-0.382;2024-03-29T12:15:44;18.50;99.90
30037;DHT22;36325;51.512;-0.382;2024-03-29T12:18:10;18.00;99.90
30037;DHT22;36325;51.512;-0.382;2024-03-29T12:20:40;17.60;99.90
30037;DHT22;36325;51.512;-0.382;2024-03-29T12:23:10;17.30;99.90
30037;DHT22;36325;51.512;-0.382;2024-03-29T12:25:39;17.20;99.90
30037;DHT22;36325;51.512;-0.382;2024-03-29T12:28:06;16.80;99.90
30037;DHT22;36325;51.512;-0.382;2024-03-29T12:30:34;16.20;99.90
30037;DHT22;36325;51.512;-0.382;2024-03-29T12:33:05;15.80;99.90
30037;DHT22;36325;51.512;-0.382;2024-03-29T12:35:43;15.80;99.90
30037;DHT22;36325;51.512;-0.382;2024-03-29T12:38:17;15.40;99.90
30037;DHT22;36325;51.512;-0.382;2024-03-29T12:40:47;15.10;99.90
30037;DHT22;36325;51.512;-0.382;2024-03-29T12:43:20;14.40;99.90
30037;DHT22;36325;51.512;-0.382;2024-03-29T12:45:47;14.20;99.90
30037;DHT22;36325;51.512;-0.382;2024-03-29T12:48:15;14.00;99.90
30037;DHT22;36325;51.512;-0.382;2024-03-29T12:50:42;14.00;99.90
30037;DHT22;36325;51.512;-0.382;2024-03-29T12:53:09;13.80;99.90
30037;DHT22;36325;51.512;-0.382;2024-03-29T12:55:43;14.00;99.90
30037;DHT22;36325;51.512;-0.382;2024-03-29T12:58:15;14.60;99.90
30037;DHT22;36325;51.512;-0.382;2024-03-29T13:00:42;15.20;99.90
30037;DHT22;36325;51.512;-0.382;2024-03-29T13:03:12;16.20;99.90
30037;DHT22;36325;51.512;-0.382;2024-03-29T13:05:42;17.90;99.90
30037;DHT22;36325;51.512;-0.382;2024-03-29T13:08:10;18.60;99.90
30037;DHT22;36325;51.512;-0.382;2024-03-29T13:10:39;19.00;99.90
30037;DHT22;36325;51.512;-0.382;2024-03-29T13:13:08;19.60;99.90
30037;DHT22;36325;51.512;-0.382;2024-03-29T13:15:35;20.30;99.90
30037;DHT22;36325;51.512;-0.382;2024-03-29T13:18:04;19.40;99.90
30037;DHT22;36325;51.512;-0.382;2024-03-29T13:20:31;19.00;99.90
30037;DHT22;36325;51.512;-0.382;2024-03-29T13:22:58;19.10;99.90
30037;DHT22;36325;51.512;-0.382;2024-03-29T13:25:25;19.40;99.90
30037;DHT22;36325;51.512;-0.382;2024-03-29T13:27:53;20.40;99.90
30037;DHT22;36325;51.512;-0.382;2024-03-29T13:30:25;20.90;99.90
30037;DHT22;36325;51.512;-0.382;2024-03-29T13:32:51;20.80;99.90
30037;DHT22;36325;51.512;-0.382;2024-03-29T13:35:18;20.20;99.90
30037;DHT22;36325;51.512;-0.382;2024-03-29T13:37:48;22.80;99.90
30037;DHT22;36325;51.512;-0.382;2024-03-29T13:40:21;20.20;99.90
30037;DHT22;36325;51.512;-0.382;2024-03-29T13:42:47;19.30;99.90
30037;DHT22;36325;51.512;-0.382;2024-03-29T13:45:17;19.30;99.90
30037;DHT22;36325;51.512;-0.382;2024-03-29T13:47:46;20.00;99.90
30037;DHT22;36325;51.512;-0.382;2024-03-29T13:52:43;18.20;99.90
30037;DHT22;36325;51.512;-0.382;2024-03-29T13:57:42;20.20;99.90
30037;DHT22;36325;51.512;-0.382;2024-03-29T14:00:11;19.60;99.90
30037;DHT22;36325;51.512;-0.382;2024-03-29T14:02:40;18.90;99.90
30037;DHT22;36325;51.512;-0.382;2024-03-29T14:05:12;17.90;99.90
30037;DHT22;36325;51.512;-0.382;2024-03-29T14:07:39;17.20;99.90
30037;DHT22;36325;51.512;-0.382;2024-03-29T14:10:06;16.60;99.90
30037;DHT22;36325;51.512;-0.382;2024-03-29T14:12:33;16.90;99.90
30037;DHT22;36325;51.512;-0.382;2024-03-29T14:15:02;18.10;99.90
30037;DHT22;36325;51.512;-0.382;2024-03-29T14:17:28;18.00;99.90
30037;DHT22;36325;51.512;-0.382;2024-03-29T14:19:56;17.40;99.90
30037;DHT22;36325;51.512;-0.382;2024-03-29T14:22:26;16.90;99.90
30037;DHT22;36325;51.512;-0.382;2024-03-29T14:24:53;16.70;99.90
30037;DHT22;36325;51.512;-0.382;2024-03-29T14:27:22;16.70;99.90
30037;DHT22;36325;51.512;-0.382;2024-03-29T14:29:50;17.40;99.90
30037;DHT22;36325;51.512;-0.382;2024-03-29T14:32:17;18.70;99.90
30037;DHT22;36325;51.512;-0.382;2024-03-29T14:34:44;19.70;99.90
30037;DHT22;36325;51.512;-0.382;2024-03-29T14:37:12;19.20;99.90
30037;DHT22;36325;51.512;-0.382;2024-03-29T14:39:43;18.70;99.90
30037;DHT22;36325;51.512;-0.382;2024-03-29T14:42:12;18.40;99.90
30037;DHT22;36325;51.512;-0.382;2024-03-29T14:44:39;18.80;99.90
30037;DHT22;36325;51.512;-0.382;2024-03-29T14:47:06;19.00;99.90
30037;DHT22;36325;51.512;-0.382;2024-03-29T14:49:34;18.70;99.90
30037;DHT22;36325;51.512;-0.382;2024-03-29T14:52:01;17.90;99.90
30037;DHT22;36325;51.512;-0.382;2024-03-29T14:54:33;17.30;99.90
30037;DHT22;36325;51.512;-0.382;2024-03-29T14:57:01;17.00;99.90
30037;DHT22;36325;51.512;-0.382;2024-03-29T14:59:37;16.90;99.90
30037;DHT22;36325;51.512;-0.382;2024-03-29T15:02:04;16.90;99.90
30037;DHT22;36325;51.512;-0.382;2024-03-29T15:04:30;16.90;99.90
30037;DHT22;36325;51.512;-0.382;2024-03-29T15:06:57;16.50;99.90
30037;DHT22;36325;51.512;-0.382;2024-03-29T15:09:23;15.40;99.90
30037;DHT22;36325;51.512;-0.382;2024-03-29T15:11:50;16.50;99.90
30037;DHT22;36325;51.512;-0.382;2024-03-29T15:14:17;16.90;99.90
30037;DHT22;36325;51.512;-0.382;2024-03-29T15:16:43;17.70;99.90
30037;DHT22;36325;51.512;-0.382;2024-03-29T15:19:13;18.70;99.90
30037;DHT22;36325;51.512;-0.382;2024-03-29T15:21:40;18.50;99.90
30037;DHT22;36325;51.512;-0.382;2024-03-29T15:24:12;17.80;99.90
30037;DHT22;36325;51.512;-0.382;2024-03-29T15:29:53;17.20;99.90
30037;DHT22;36325;51.512;-0.382;2024-03-29T15:32:21;17.00;99.90
30037;DHT22;36325;51.512;-0.382;2024-03-29T15:34:50;16.60;99.90
30037;DHT22;36325;51.512;-0.382;2024-03-29T15:37:17;16.20;99.90
30037;DHT22;36325;51.512;-0.382;2024-03-29T15:39:45;16.30;99.90
30037;DHT22;36325;51.512;-0.382;2024-03-29T15:42:13;16.40;99.90
30037;DHT22;36325;51.512;-0.382;2024-03-29T15:44:43;16.80;99.90
30037;DHT22;36325;51.512;-0.382;2024-03-29T15:47:11;17.50;99.90
30037;DHT22;36325;51.512;-0.382;2024-03-29T15:49:41;17.90;99.90
30037;DHT22;36325;51.512;-0.382;2024-03-29T15:52:14;18.80;99.90
30037;DHT22;36325;51.512;-0.382;2024-03-29T15:54:41;16.30;99.90
30037;DHT22;36325;51.512;-0.382;2024-03-29T15:57:07;19.30;99.90
30037;DHT22;36325;51.512;-0.382;2024-03-29T15:59:34;18.40;99.90
30037;DHT22;36325;51.512;-0.382;2024-03-29T16:02:02;18.30;99.90
30037;DHT22;36325;51.512;-0.382;2024-03-29T16:04:30;18.20;99.90
30037;DHT22;36325;51.512;-0.382;2024-03-29T16:06:56;17.70;99.90
30037;DHT22;36325;51.512;-0.382;2024-03-29T16:09:24;17.20;99.90
30037;DHT22;36325;51.512;-0.382;2024-03-29T16:11:53;16.60;99.90
30037;DHT22;36325;51.512;-0.382;2024-03-29T16:14:19;16.00;99.90
30037;DHT22;36325;51.512;-0.382;2024-03-29T16:16:48;15.80;99.90
30037;DHT22;36325;51.512;-0.382;2024-03-29T16:19:15;15.80;99.90
30037;DHT22;36325;51.512;-0.382;2024-03-29T16:21:42;15.60;99.90